MSC Zebra — 9HA3367 — position and weather

sailwx.info

Track history (hours):
 
Tides and Currents Weather Stations Pressure Air Temp Water Temp Dewpoint Dewpoint Depression Visibility Wind Speed Wind Dir Waves Ship Positions

MSC Zebra

Last reported at 2017-Aug-19 10:19 UTC. Time now 2017-Sep-21 12:30 UTC.
Position N 25°29' W 080°01'.
Warning: this ship's position is 33 days out of date.

Length 210 m; draft 7.7 m.

Type: Cargo ship. MMSI: 229481000.

Date/timePositionNaut miles runAvg speedWind from/ knotsBaromVisibWave heightAir tempDewpointWater temp
2017-Aug-19 10:19N 25°29' W 080°01'3 9.7
2017-Aug-19 10:00N 25°32' W 080°01'5 9.2
2017-Aug-19 09:30N 25°37' W 080°01'5 9.2
2017-Aug-19 09:00N 25°41' W 080°01'5 9.1
2017-Aug-19 08:30N 25°46' W 080°01'5 9.3
2017-Aug-19 08:00N 25°51' W 080°01'5 9.3
2017-Aug-19 07:30N 25°55' W 080°02'5 9.6
2017-Aug-19 07:00N 25°60' W 080°03'5 9.7
2017-Aug-19 06:30N 26°05' W 080°04'3 5.8
2017-Aug-19 06:01N 26°05' W 080°07'1 2.6
2017-Aug-19 05:30N 26°04' W 080°07'0 0.1
2017-Aug-19 05:00N 26°04' W 080°07'0 0.0
2017-Aug-19 04:30N 26°04' W 080°07'0 0.0
2017-Aug-19 04:00N 26°04' W 080°07'0 0.0
2017-Aug-19 03:30N 26°04' W 080°07'0 0.0
2017-Aug-19 03:00N 26°04' W 080°07'0 0.0
2017-Aug-19 02:30N 26°04' W 080°07'0 0.0
2017-Aug-19 02:00N 26°04' W 080°07'0 0.0
2017-Aug-19 01:30N 26°04' W 080°07'0 0.0
2017-Aug-19 01:00N 26°04' W 080°07'0 0.0
2017-Aug-19 00:30N 26°04' W 080°07'0 0.0
2017-Aug-19 00:00N 26°04' W 080°07'0 0.0
2017-Aug-18 23:30N 26°04' W 080°07'0 0.0
2017-Aug-18 23:00N 26°04' W 080°07'0 0.0
2017-Aug-18 22:30N 26°04' W 080°07'0 0.0
2017-Aug-18 22:00N 26°04' W 080°07'0 0.0
2017-Aug-18 21:30N 26°04' W 080°07'0 0.0
2017-Aug-18 21:00N 26°04' W 080°07'0 0.0
2017-Aug-18 20:30N 26°04' W 080°07'0 0.0
2017-Aug-18 20:00N 26°04' W 080°07'0 0.0
2017-Aug-18 19:30N 26°04' W 080°07'0 0.0
2017-Aug-18 19:00N 26°04' W 080°07'0 0.0
2017-Aug-18 18:30N 26°04' W 080°07'0 0.0
2017-Aug-18 18:00N 26°04' W 080°07'0 0.0
2017-Aug-18 17:30N 26°04' W 080°07'0 0.0
2017-Aug-18 17:00N 26°04' W 080°07'0 0.0
2017-Aug-18 16:30N 26°04' W 080°07'0 0.0
2017-Aug-18 16:00N 26°04' W 080°07'0 0.0
2017-Aug-18 15:30N 26°04' W 080°07'0 0.0
2017-Aug-18 15:00N 26°04' W 080°07'0 0.0
2017-Aug-18 14:30N 26°04' W 080°07'0 0.0
2017-Aug-18 13:30N 26°04' W 080°07'0 0.0
2017-Aug-18 13:00N 26°04' W 080°07'0 0.3
2017-Aug-18 12:30N 26°04' W 080°07'1 2.7
2017-Aug-18 12:01N 26°06' W 080°06'4 8.4
2017-Aug-18 11:30N 26°06' W 080°02'2 3.1
2017-Aug-18 11:00N 26°08' W 080°02'2 3.2
2017-Aug-18 10:30N 26°06' W 080°02'2 3.5
2017-Aug-18 10:00N 26°05' W 080°02'2 3.5
2017-Aug-18 09:30N 26°03' W 080°02'2 3.3
2017-Aug-18 09:01N 26°01' W 080°02'1 2.7
2017-Aug-18 08:30N 25°60' W 080°02'3 6.2
2017-Aug-18 08:01N 26°03' W 080°02'1 1.4
2017-Aug-18 07:30N 26°04' W 080°02'2 3.6
2017-Aug-18 07:00N 26°02' W 080°02'4 7.2
2017-Aug-18 06:31N 25°60' W 079°59'713.8
2017-Aug-18 06:01N 25°55' W 079°53'815.8
2017-Aug-18 05:31N 25°47' W 079°53'816.1
2017-Aug-18 05:01N 25°39' W 079°52'816.1
2017-Aug-18 04:30N 25°31' W 079°53'815.9
2017-Aug-18 04:01N 25°23' W 079°53'  
Track history (hours):
 
Tides and Currents Weather Stations Pressure Air Temp Water Temp Dewpoint Dewpoint Depression Visibility Wind Speed Wind Dir Waves Ship Positions

MSC Zebra

Last reported at 2017-Aug-19 10:19 UTC. Time now 2017-Sep-21 12:30 UTC.
Position N 25°29' W 080°01'.
Warning: this ship's position is 33 days out of date.

Length 210 m; draft 7.7 m.

Type: Cargo ship. MMSI: 229481000.

Date/timePositionNaut miles runAvg speedWind from/ knotsBaromVisibWave heightAir tempDewpointWater temp
2017-Aug-19 10:19N 25°29' W 080°01'3 9.7
2017-Aug-19 10:00N 25°32' W 080°01'5 9.2
2017-Aug-19 09:30N 25°37' W 080°01'5 9.2
2017-Aug-19 09:00N 25°41' W 080°01'5 9.1
2017-Aug-19 08:30N 25°46' W 080°01'5 9.3
2017-Aug-19 08:00N 25°51' W 080°01'5 9.3
2017-Aug-19 07:30N 25°55' W 080°02'5 9.6
2017-Aug-19 07:00N 25°60' W 080°03'5 9.7
2017-Aug-19 06:30N 26°05' W 080°04'3 5.8
2017-Aug-19 06:01N 26°05' W 080°07'1 2.6
2017-Aug-19 05:30N 26°04' W 080°07'0 0.1
2017-Aug-19 05:00N 26°04' W 080°07'0 0.0
2017-Aug-19 04:30N 26°04' W 080°07'0 0.0
2017-Aug-19 04:00N 26°04' W 080°07'0 0.0
2017-Aug-19 03:30N 26°04' W 080°07'0 0.0
2017-Aug-19 03:00N 26°04' W 080°07'0 0.0
2017-Aug-19 02:30N 26°04' W 080°07'0 0.0
2017-Aug-19 02:00N 26°04' W 080°07'0 0.0
2017-Aug-19 01:30N 26°04' W 080°07'0 0.0
2017-Aug-19 01:00N 26°04' W 080°07'0 0.0
2017-Aug-19 00:30N 26°04' W 080°07'0 0.0
2017-Aug-19 00:00N 26°04' W 080°07'0 0.0
2017-Aug-18 23:30N 26°04' W 080°07'0 0.0
2017-Aug-18 23:00N 26°04' W 080°07'0 0.0
2017-Aug-18 22:30N 26°04' W 080°07'0 0.0
2017-Aug-18 22:00N 26°04' W 080°07'0 0.0
2017-Aug-18 21:30N 26°04' W 080°07'0 0.0
2017-Aug-18 21:00N 26°04' W 080°07'0 0.0
2017-Aug-18 20:30N 26°04' W 080°07'0 0.0
2017-Aug-18 20:00N 26°04' W 080°07'0 0.0
2017-Aug-18 19:30N 26°04' W 080°07'0 0.0
2017-Aug-18 19:00N 26°04' W 080°07'0 0.0
2017-Aug-18 18:30N 26°04' W 080°07'0 0.0
2017-Aug-18 18:00N 26°04' W 080°07'0 0.0
2017-Aug-18 17:30N 26°04' W 080°07'0 0.0
2017-Aug-18 17:00N 26°04' W 080°07'0 0.0
2017-Aug-18 16:30N 26°04' W 080°07'0 0.0
2017-Aug-18 16:00N 26°04' W 080°07'0 0.0
2017-Aug-18 15:30N 26°04' W 080°07'0 0.0
2017-Aug-18 15:00N 26°04' W 080°07'0 0.0
2017-Aug-18 14:30N 26°04' W 080°07'0 0.0
2017-Aug-18 13:30N 26°04' W 080°07'0 0.0
2017-Aug-18 13:00N 26°04' W 080°07'0 0.3
2017-Aug-18 12:30N 26°04' W 080°07'1 2.7
2017-Aug-18 12:01N 26°06' W 080°06'4 8.4
2017-Aug-18 11:30N 26°06' W 080°02'2 3.1
2017-Aug-18 11:00N 26°08' W 080°02'2 3.2
2017-Aug-18 10:30N 26°06' W 080°02'2 3.5
2017-Aug-18 10:00N 26°05' W 080°02'2 3.5
2017-Aug-18 09:30N 26°03' W 080°02'2 3.3
2017-Aug-18 09:01N 26°01' W 080°02'1 2.7
2017-Aug-18 08:30N 25°60' W 080°02'3 6.2
2017-Aug-18 08:01N 26°03' W 080°02'1 1.4
2017-Aug-18 07:30N 26°04' W 080°02'2 3.6
2017-Aug-18 07:00N 26°02' W 080°02'4 7.2
2017-Aug-18 06:31N 25°60' W 079°59'713.8
2017-Aug-18 06:01N 25°55' W 079°53'815.8
2017-Aug-18 05:31N 25°47' W 079°53'816.1
2017-Aug-18 05:01N 25°39' W 079°52'816.1
2017-Aug-18 04:30N 25°31' W 079°53'815.9
2017-Aug-18 04:01N 25°23' W 079°53'  

Dump ship's entire track history